Time;durP1;ratioP1;P1;durP2;ratioP2;P2;SDS_P1;SDS_P2;PMS_P1;PMS_P2;Temp;Humidity;BMP_temperature;BMP_pressure;BME280_temperature;BME280_humidity;BME280_pressure;Samples;Min_cycle;Max_cycle;Signal;HPM_P1;HPM_P2
2024/04/13 00:01:38;;;;;;;5.93;4.40;;;14.00;99.90;;;;;;5381908;26;20569;-72
2024/04/13 00:04:07;;;;;;;9.37;4.50;;;14.10;99.90;;;;;;5382226;26;20315;-73
2024/04/13 00:06:32;;;;;;;5.17;4.40;;;14.10;99.90;;;;;;5382361;26;20447;-73
2024/04/13 00:08:58;;;;;;;5.77;4.20;;;14.10;99.90;;;;;;5381792;26;20451;-73
2024/04/13 00:11:23;;;;;;;3.63;3.33;;;14.10;99.90;;;;;;5379117;26;20234;-73
2024/04/13 00:13:49;;;;;;;7.60;4.00;;;14.20;99.90;;;;;;5381906;26;20217;-73
2024/04/13 00:16:15;;;;;;;4.87;4.37;;;14.20;99.90;;;;;;5381901;26;20213;-73
2024/04/13 00:18:41;;;;;;;5.03;4.37;;;14.10;99.90;;;;;;5380414;26;20516;-73
2024/04/13 00:21:07;;;;;;;4.30;3.90;;;14.10;99.90;;;;;;5375971;26;20531;-73
2024/04/13 00:23:32;;;;;;;10.73;3.50;;;14.10;99.90;;;;;;5381664;26;20225;-73
2024/04/13 00:25:58;;;;;;;8.20;5.63;;;14.00;99.90;;;;;;5381415;26;20222;-73
2024/04/13 00:28:23;;;;;;;9.97;4.47;;;14.00;99.90;;;;;;5381639;26;20721;-73
2024/04/13 00:30:49;;;;;;;7.50;3.37;;;14.00;99.90;;;;;;5381228;26;20218;-73
2024/04/13 00:33:15;;;;;;;3.67;3.37;;;13.90;99.90;;;;;;5381808;26;20269;-73
2024/04/13 00:35:41;;;;;;;5.10;4.47;;;13.90;99.90;;;;;;5381634;26;20324;-73
2024/04/13 00:38:07;;;;;;;7.30;4.40;;;13.90;99.90;;;;;;5381638;26;20435;-73
2024/04/13 00:40:33;;;;;;;6.37;4.47;;;14.00;99.90;;;;;;5378558;26;20523;-74
2024/04/13 00:43:12;;;;;;;6.63;3.60;;;14.00;99.90;;;;;;5381363;26;20463;-73
2024/04/13 00:45:44;;;;;;;4.83;4.10;;;14.00;99.90;;;;;;5381381;26;20213;-73
2024/04/13 00:48:19;;;;;;;7.20;4.33;;;13.90;99.90;;;;;;5381716;26;20554;-73
2024/04/13 00:50:53;;;;;;;6.40;3.83;;;14.00;99.90;;;;;;5381040;26;20527;-73
2024/04/13 00:53:20;;;;;;;4.93;3.73;;;14.00;99.90;;;;;;5381377;26;21014;-73
2024/04/13 00:55:46;;;;;;;5.37;4.67;;;14.00;99.90;;;;;;5381586;26;20570;-73
2024/04/13 00:58:12;;;;;;;3.83;3.50;;;14.00;99.90;;;;;;5381381;26;20443;-73
2024/04/13 01:00:39;;;;;;;5.70;4.10;;;13.90;99.90;;;;;;5380870;26;20917;-73
2024/04/13 01:03:05;;;;;;;5.60;3.77;;;13.90;99.90;;;;;;5381306;26;20292;-73
2024/04/13 01:05:31;;;;;;;5.03;4.40;;;13.90;99.90;;;;;;5381056;26;20456;-73
2024/04/13 01:07:57;;;;;;;5.07;4.57;;;13.90;99.90;;;;;;5381139;26;20256;-73
2024/04/13 01:10:23;;;;;;;10.37;3.70;;;13.90;99.90;;;;;;5380614;26;20471;-74
2024/04/13 01:12:49;;;;;;;4.97;3.77;;;13.90;99.90;;;;;;5381086;26;20218;-73
2024/04/13 01:15:16;;;;;;;4.40;3.87;;;13.80;99.90;;;;;;5377704;26;20440;-73
2024/04/13 01:17:43;;;;;;;4.23;3.40;;;13.80;99.90;;;;;;5370301;26;20510;-73
2024/04/13 01:20:09;;;;;;;5.03;3.90;;;13.70;99.90;;;;;;5380534;26;20523;-73
2024/04/13 01:22:45;;;;;;;4.03;3.63;;;13.70;99.90;;;;;;5380770;26;20552;-73
2024/04/13 01:25:13;;;;;;;5.10;4.33;;;13.70;99.90;;;;;;5381015;26;20439;-73
2024/04/13 01:27:39;;;;;;;5.00;4.33;;;13.70;99.90;;;;;;5381011;26;20969;-74
2024/04/13 01:30:13;;;;;;;5.20;4.70;;;13.70;99.90;;;;;;5380686;26;20531;-73
2024/04/13 01:32:39;;;;;;;5.10;4.63;;;13.60;99.90;;;;;;5379147;26;20517;-73
2024/04/13 01:35:12;;;;;;;8.00;3.87;;;13.60;99.90;;;;;;5379769;26;20954;-73
2024/04/13 01:37:41;;;;;;;5.03;4.37;;;13.60;99.90;;;;;;5380731;26;20590;-73
2024/04/13 01:40:08;;;;;;;10.13;3.70;;;13.60;99.90;;;;;;5380183;26;20456;-73
2024/04/13 01:42:35;;;;;;;8.40;4.40;;;13.60;99.90;;;;;;5380672;26;20508;-73
2024/04/13 01:45:00;;;;;;;3.63;3.33;;;13.60;99.90;;;;;;5380640;26;20519;-73
2024/04/13 01:47:26;;;;;;;8.30;4.23;;;13.60;99.90;;;;;;5380665;26;21042;-73
2024/04/13 01:49:52;;;;;;;6.07;4.60;;;13.60;99.90;;;;;;5380192;26;20395;-73
2024/04/13 01:52:20;;;;;;;6.33;4.50;;;13.50;99.90;;;;;;5380398;26;20256;-73
2024/04/13 01:54:46;;;;;;;4.50;4.10;;;13.50;99.90;;;;;;5380395;26;20213;-73
2024/04/13 01:57:12;;;;;;;4.67;4.20;;;13.50;99.90;;;;;;5380532;26;20495;-73
2024/04/13 01:59:38;;;;;;;4.53;4.13;;;13.50;99.90;;;;;;5379940;26;20459;-73
2024/04/13 02:02:04;;;;;;;5.83;4.47;;;13.50;99.90;;;;;;5378575;26;20505;-73
2024/04/13 02:04:29;;;;;;;4.97;4.47;;;13.50;99.90;;;;;;5380493;26;20448;-73
2024/04/13 02:06:54;;;;;;;7.83;5.00;;;13.50;99.90;;;;;;5380150;26;20568;-74
2024/04/13 02:09:20;;;;;;;5.53;4.87;;;13.50;99.90;;;;;;5380058;26;20221;-74
2024/04/13 02:11:46;;;;;;;7.23;5.07;;;13.40;99.90;;;;;;5380268;26;20348;-73
2024/04/13 02:14:12;;;;;;;4.93;4.23;;;13.40;99.90;;;;;;5380315;26;20644;-73
2024/04/13 02:16:37;;;;;;;8.00;5.17;;;13.40;99.90;;;;;;5380230;26;20444;-73
2024/04/13 02:19:06;;;;;;;5.73;4.40;;;13.40;99.90;;;;;;5379768;26;20213;-74
2024/04/13 02:21:32;;;;;;;5.93;4.60;;;13.40;99.90;;;;;;5378210;26;20802;-73
2024/04/13 02:23:57;;;;;;;6.53;4.87;;;13.40;99.90;;;;;;5380076;26;20444;-73
2024/04/13 02:26:23;;;;;;;6.87;5.23;;;13.40;99.90;;;;;;5378370;26;20248;-73
2024/04/13 02:28:48;;;;;;;5.50;4.37;;;13.40;99.90;;;;;;5379964;26;20259;-74
2024/04/13 02:31:14;;;;;;;5.87;4.30;;;13.30;99.90;;;;;;5379612;26;20764;-73
2024/04/13 02:33:40;;;;;;;5.07;4.63;;;13.30;99.90;;;;;;5379069;26;20593;-73
2024/04/13 02:36:06;;;;;;;7.37;5.00;;;13.40;99.90;;;;;;5379856;26;20681;-73
2024/04/13 02:38:32;;;;;;;6.77;4.93;;;13.40;99.90;;;;;;5379796;26;20326;-73
2024/04/13 02:40:59;;;;;;;6.43;4.97;;;13.40;99.90;;;;;;5379389;26;20460;-73
2024/04/13 02:43:26;;;;;;;5.50;5.00;;;13.40;99.90;;;;;;5379632;26;20444;-73
2024/04/13 02:45:51;;;;;;;11.13;5.43;;;13.40;99.90;;;;;;5379623;26;21041;-73
2024/04/13 02:48:18;;;;;;;7.80;4.70;;;13.40;99.90;;;;;;5377902;26;20562;-73
2024/04/13 02:50:44;;;;;;;5.37;4.77;;;13.40;99.90;;;;;;5379276;26;20304;-73
2024/04/13 02:53:09;;;;;;;13.33;5.67;;;13.40;99.90;;;;;;5379826;26;20843;-74
2024/04/13 02:55:35;;;;;;;5.73;5.10;;;13.40;99.90;;;;;;5378151;26;20237;-74
2024/04/13 02:58:00;;;;;;;5.87;4.50;;;13.40;99.90;;;;;;5379486;26;20221;-73
2024/04/13 03:00:26;;;;;;;5.80;4.70;;;13.40;99.90;;;;;;5379334;26;20233;-73
2024/04/13 03:02:51;;;;;;;5.60;4.60;;;13.40;99.90;;;;;;5379515;26;20209;-73
2024/04/13 03:05:17;;;;;;;13.93;5.03;;;13.30;99.90;;;;;;5379353;26;20256;-73
2024/04/13 03:07:42;;;;;;;5.50;4.13;;;13.30;99.90;;;;;;5379262;26;20550;-73
2024/04/13 03:10:08;;;;;;;5.43;4.23;;;13.30;99.90;;;;;;5378755;26;20264;-74
2024/04/13 03:12:34;;;;;;;5.63;4.10;;;13.20;99.90;;;;;;5379710;26;20217;-74
2024/04/13 03:15:00;;;;;;;8.30;4.30;;;13.20;99.90;;;;;;5379587;26;20451;-73
2024/04/13 03:17:25;;;;;;;6.53;4.00;;;13.20;99.90;;;;;;5379100;26;20515;-74
2024/04/13 03:19:51;;;;;;;4.77;3.97;;;13.20;99.90;;;;;;5378641;26;20226;-73
2024/04/13 03:22:18;;;;;;;5.17;3.47;;;13.10;99.90;;;;;;5379111;26;20260;-74
2024/04/13 03:24:44;;;;;;;5.97;5.03;;;13.10;99.90;;;;;;5379174;26;20225;-74
2024/04/13 03:27:09;;;;;;;7.07;4.97;;;13.20;99.90;;;;;;5378939;26;20558;-73
2024/04/13 03:29:35;;;;;;;6.33;5.07;;;13.20;99.90;;;;;;5378519;26;20514;-74
2024/04/13 03:32:01;;;;;;;7.50;4.80;;;13.20;99.90;;;;;;5379036;26;20217;-73
2024/04/13 03:34:27;;;;;;;6.00;4.77;;;13.10;99.90;;;;;;5378831;26;20743;-74
2024/04/13 03:36:53;;;;;;;5.57;4.83;;;13.10;99.90;;;;;;5378769;26;20545;-73
2024/04/13 03:39:21;;;;;;;8.67;5.10;;;13.20;99.90;;;;;;5378360;26;20507;-74
2024/04/13 03:41:47;;;;;;;6.27;4.53;;;13.20;99.90;;;;;;5378756;26;20503;-74
2024/04/13 03:44:13;;;;;;;11.83;5.40;;;13.20;99.90;;;;;;5378778;26;20459;-73
2024/04/13 03:46:39;;;;;;;6.77;5.07;;;13.20;99.90;;;;;;5381860;26;20456;-73
2024/04/13 03:49:04;;;;;;;6.63;4.13;;;13.10;99.90;;;;;;5381793;26;20210;-74
2024/04/13 03:51:30;;;;;;;7.27;4.70;;;13.10;99.90;;;;;;5382187;26;20304;-73
2024/04/13 03:53:57;;;;;;;5.07;4.57;;;13.20;99.90;;;;;;5382173;26;20315;-74
2024/04/13 03:56:23;;;;;;;5.20;4.40;;;13.10;99.90;;;;;;5382076;26;20716;-74
2024/04/13 03:58:48;;;;;;;8.37;5.00;;;13.10;99.90;;;;;;5382180;26;20444;-73
2024/04/13 04:01:14;;;;;;;6.60;4.87;;;13.10;99.90;;;;;;5381733;26;20233;-74
2024/04/13 04:03:39;;;;;;;9.37;5.43;;;13.10;99.90;;;;;;5381980;26;20218;-73
2024/04/13 04:06:05;;;;;;;7.43;5.07;;;13.10;99.90;;;;;;5382047;26;20217;-73
2024/04/13 04:08:31;;;;;;;7.40;4.50;;;13.10;99.90;;;;;;5381977;26;20260;-73
2024/04/13 04:10:57;;;;;;;6.60;4.50;;;13.10;99.90;;;;;;5381484;26;20832;-73
2024/04/13 04:13:25;;;;;;;8.23;6.10;;;13.10;99.90;;;;;;5381976;26;20504;-73
2024/04/13 04:15:54;;;;;;;10.90;6.97;;;13.10;99.90;;;;;;5381779;26;20256;-74
2024/04/13 04:18:20;;;;;;;5.80;4.70;;;13.00;99.90;;;;;;5381783;26;20555;-73
2024/04/13 04:20:49;;;;;;;8.13;4.93;;;13.00;99.90;;;;;;5381319;26;20467;-74
2024/04/13 04:23:14;;;;;;;6.43;4.67;;;13.00;99.90;;;;;;5381929;26;20206;-74
2024/04/13 04:25:40;;;;;;;9.20;5.10;;;13.00;99.90;;;;;;5380012;26;20463;-73
2024/04/13 04:28:06;;;;;;;5.93;4.97;;;12.90;99.90;;;;;;5379993;26;20310;-73
2024/04/13 04:30:32;;;;;;;5.50;4.50;;;12.90;99.90;;;;;;5381453;26;20277;-73
2024/04/13 04:32:57;;;;;;;7.63;5.10;;;12.90;99.90;;;;;;5381560;26;20439;-73
2024/04/13 04:35:23;;;;;;;11.20;4.87;;;12.80;99.90;;;;;;5381709;26;20260;-73
2024/04/13 04:37:49;;;;;;;5.70;5.10;;;12.80;99.90;;;;;;5381679;26;20213;-74
2024/04/13 04:40:14;;;;;;;4.77;4.13;;;12.80;99.90;;;;;;5381167;26;20217;-74
2024/04/13 04:42:40;;;;;;;12.30;5.67;;;12.90;99.90;;;;;;5381642;26;20284;-73
2024/04/13 04:45:06;;;;;;;8.90;4.93;;;12.80;99.90;;;;;;5379663;26;20221;-73
2024/04/13 04:47:33;;;;;;;8.40;5.10;;;12.80;99.90;;;;;;5381382;26;20262;-73
2024/04/13 04:49:58;;;;;;;6.90;5.00;;;12.80;99.90;;;;;;5380886;26;20862;-73
2024/04/13 04:52:24;;;;;;;4.73;4.27;;;12.80;99.90;;;;;;5381657;26;20440;-75
2024/04/13 04:54:50;;;;;;;5.83;4.73;;;12.90;99.90;;;;;;5380052;26;20253;-73
2024/04/13 04:57:15;;;;;;;6.17;4.40;;;12.90;99.90;;;;;;5381035;26;20218;-73
2024/04/13 04:59:41;;;;;;;6.53;4.20;;;13.00;99.90;;;;;;5379154;26;20758;-73
2024/04/13 05:02:06;;;;;;;6.50;4.20;;;13.00;99.90;;;;;;5379467;26;20221;-73
2024/04/13 05:04:32;;;;;;;5.63;4.73;;;13.10;99.90;;;;;;5381318;26;20259;-74
2024/04/13 05:06:57;;;;;;;4.10;3.50;;;13.10;99.90;;;;;;5381248;26;20252;-74
2024/04/13 05:09:23;;;;;;;6.30;4.43;;;13.20;99.90;;;;;;5380645;26;20273;-74
2024/04/13 05:11:49;;;;;;;6.27;4.17;;;13.20;99.90;;;;;;5381214;26;20209;-74
2024/04/13 05:14:17;;;;;;;7.43;4.57;;;13.30;99.90;;;;;;5381240;26;20214;-73
2024/04/13 05:16:42;;;;;;;5.03;4.47;;;13.40;99.90;;;;;;5381336;26;20214;-74
2024/04/13 05:19:08;;;;;;;4.33;3.70;;;13.50;99.90;;;;;;5378953;26;20855;-74
2024/04/13 05:21:34;;;;;;;6.30;4.77;;;13.50;99.90;;;;;;5379351;26;20257;-74
2024/04/13 05:23:59;;;;;;;5.37;4.87;;;13.70;99.90;;;;;;5380913;26;20213;-73
2024/04/13 05:26:25;;;;;;;7.90;5.17;;;13.80;99.90;;;;;;5381096;26;20256;-74
2024/04/13 05:28:51;;;;;;;10.73;5.30;;;13.80;99.90;;;;;;5380892;26;20210;-74
2024/04/13 05:31:17;;;;;;;8.60;5.63;;;13.90;99.90;;;;;;5380322;26;20225;-74
2024/04/13 05:33:44;;;;;;;5.80;5.00;;;14.00;99.90;;;;;;5380708;26;20499;-74
2024/04/13 05:36:10;;;;;;;14.53;6.40;;;14.20;99.90;;;;;;5380881;26;20817;-74
2024/04/13 05:38:36;;;;;;;8.90;5.83;;;14.50;99.90;;;;;;5380683;26;20505;-74
2024/04/13 05:41:01;;;;;;;6.47;5.23;;;14.70;99.90;;;;;;5380301;26;20459;-74
2024/04/13 05:43:27;;;;;;;6.27;5.67;;;15.00;99.90;;;;;;5380707;26;20709;-74
2024/04/13 05:45:52;;;;;;;7.40;5.20;;;15.40;99.90;;;;;;5380553;26;20269;-74
2024/04/13 05:48:21;;;;;;;7.97;5.77;;;15.70;99.90;;;;;;5380655;26;20214;-74
2024/04/13 05:50:53;;;;;;;5.33;4.83;;;16.00;99.90;;;;;;5380286;26;20264;-74
2024/04/13 05:53:19;;;;;;;5.47;4.93;;;16.20;99.90;;;;;;5378828;26;20958;-74
2024/04/13 05:55:45;;;;;;;12.70;4.70;;;16.50;99.90;;;;;;5380643;26;20494;-73
2024/04/13 05:58:10;;;;;;;5.77;4.60;;;16.80;99.90;;;;;;5380488;26;20448;-74
2024/04/13 06:00:36;;;;;;;5.03;4.43;;;17.30;99.90;;;;;;5379903;26;20833;-74
2024/04/13 06:03:02;;;;;;;5.20;4.23;;;18.00;99.90;;;;;;5380366;26;20213;-74
2024/04/13 06:05:28;;;;;;;3.97;3.60;;;18.60;99.90;;;;;;5378637;26;20693;-74
2024/04/13 06:07:53;;;;;;;5.87;4.17;;;19.10;99.90;;;;;;5378984;26;20504;-74
2024/04/13 06:10:19;;;;;;;6.20;4.20;;;19.60;99.90;;;;;;5379822;26;20725;-74
2024/04/13 06:12:46;;;;;;;4.83;3.00;;;20.10;99.90;;;;;;5380385;26;20261;-74
2024/04/13 06:15:12;;;;;;;4.67;3.63;;;20.60;99.90;;;;;;5380047;26;20209;-74
2024/04/13 06:17:37;;;;;;;3.60;3.30;;;20.90;99.90;;;;;;5380284;26;20432;-74
2024/04/13 06:20:03;;;;;;;5.07;4.20;;;21.30;99.90;;;;;;5379985;26;20268;-74
2024/04/13 06:22:28;;;;;;;3.63;3.33;;;21.60;99.90;;;;;;5380013;26;20214;-74
2024/04/13 06:24:54;;;;;;;4.20;3.80;;;22.10;99.90;;;;;;5380173;26;20225;-74
2024/04/13 06:27:20;;;;;;;7.20;3.43;;;22.50;99.90;;;;;;5380056;26;20217;-74
2024/04/13 06:29:50;;;;;;;5.50;3.23;;;22.90;99.90;;;;;;5377636;26;20338;-74
2024/04/13 06:32:16;;;;;;;7.17;4.13;;;23.30;99.90;;;;;;5380009;26;20670;-75
2024/04/13 06:34:42;;;;;;;3.43;3.13;;;23.70;99.90;;;;;;5367711;26;20455;-71
2024/04/13 06:37:07;;;;;;;4.13;3.73;;;24.00;99.90;;;;;;5365520;26;20842;-72
2024/04/13 06:39:33;;;;;;;9.63;4.47;;;24.10;99.90;;;;;;5374813;26;20307;-71
2024/04/13 06:41:58;;;;;;;3.77;3.00;;;24.00;99.90;;;;;;5379734;26;20303;-71
2024/04/13 06:44:24;;;;;;;3.60;3.30;;;24.20;99.90;;;;;;5372307;26;20249;-71
2024/04/13 06:46:52;;;;;;;3.93;3.53;;;24.40;99.90;;;;;;5379488;26;20218;-71
2024/04/13 06:49:19;;;;;;;5.53;4.10;;;24.40;99.90;;;;;;5378853;26;20611;-71
2024/04/13 06:51:44;;;;;;;6.87;3.70;;;24.70;99.90;;;;;;5377615;26;20463;-71
2024/04/13 06:54:10;;;;;;;6.17;3.20;;;24.90;99.90;;;;;;5367343;26;21124;-71
2024/04/13 06:56:36;;;;;;;4.70;4.30;;;25.00;99.90;;;;;;5356302;26;20265;-71
2024/04/13 06:59:02;;;;;;;3.87;2.93;;;25.10;95.70;;;;;;5346711;26;20219;-70
2024/04/13 07:01:28;;;;;;;5.33;3.00;;;25.20;93.60;;;;;;5376007;26;20787;-71
2024/04/13 07:03:56;;;;;;;3.30;3.00;;;25.20;92.90;;;;;;5379665;26;20440;-72
2024/04/13 07:06:22;;;;;;;3.83;3.43;;;25.00;93.70;;;;;;5379917;26;20209;-71
2024/04/13 07:08:49;;;;;;;8.30;5.77;;;25.10;92.10;;;;;;5379103;26;20870;-71
2024/04/13 07:11:15;;;;;;;11.00;3.43;;;25.20;87.80;;;;;;5378751;26;20512;-71
2024/04/13 07:13:40;;;;;;;4.20;2.70;;;25.10;88.70;;;;;;5378706;26;20448;-70
2024/04/13 07:16:06;;;;;;;4.20;3.43;;;25.20;89.20;;;;;;5379128;26;20440;-72
2024/04/13 07:18:32;;;;;;;5.07;3.80;;;25.30;86.90;;;;;;5379045;26;20264;-71
2024/04/13 07:20:58;;;;;;;5.37;3.90;;;25.30;87.80;;;;;;5381863;26;20233;-71
2024/04/13 07:23:24;;;;;;;3.83;3.00;;;25.60;87.50;;;;;;5365821;26;20574;-71
2024/04/13 07:26:03;;;;;;;4.13;3.27;;;26.30;83.10;;;;;;5374418;26;20326;-72
2024/04/13 07:28:30;;;;;;;3.20;2.90;;;27.00;74.50;;;;;;5378388;26;20598;-72
2024/04/13 07:30:56;;;;;;;6.60;4.40;;;27.90;68.60;;;;;;5381986;26;20448;-72
2024/04/13 07:33:21;;;;;;;4.03;3.63;;;28.60;61.50;;;;;;5372787;26;20503;-72
2024/04/13 07:35:48;;;;;;;3.87;3.30;;;29.10;58.30;;;;;;5369622;26;20817;-72
2024/04/13 07:38:14;;;;;;;3.67;3.37;;;29.60;56.80;;;;;;5382256;26;20225;-72
2024/04/13 07:40:39;;;;;;;4.63;3.40;;;29.40;54.60;;;;;;5381478;26;20672;-72
2024/04/13 07:43:05;;;;;;;3.93;3.53;;;29.40;53.80;;;;;;5381967;26;20285;-71
2024/04/13 07:45:31;;;;;;;3.17;2.53;;;29.00;53.90;;;;;;5382065;26;20272;-72
2024/04/13 07:47:56;;;;;;;4.57;3.57;;;29.10;54.60;;;;;;5382240;26;20233;-72
2024/04/13 07:50:23;;;;;;;3.70;2.80;;;29.10;55.00;;;;;;5381297;26;20222;-71
2024/04/13 07:52:48;;;;;;;3.00;2.80;;;29.50;53.80;;;;;;5382065;26;20685;-71
2024/04/13 07:55:14;;;;;;;5.63;4.07;;;29.50;53.50;;;;;;5371768;26;20447;-72
2024/04/13 07:57:39;;;;;;;4.00;3.10;;;29.30;52.80;;;;;;5358389;26;20733;-71
2024/04/13 08:00:06;;;;;;;4.50;4.07;;;29.60;52.30;;;;;;5381321;26;20334;-72
2024/04/13 08:02:32;;;;;;;4.33;3.57;;;29.50;52.60;;;;;;5379825;26;20233;-72
2024/04/13 08:04:57;;;;;;;4.40;3.80;;;29.90;52.80;;;;;;5381733;26;20512;-71
2024/04/13 08:07:23;;;;;;;4.80;3.53;;;29.70;51.30;;;;;;5376468;26;20238;-72
2024/04/13 08:09:48;;;;;;;6.00;3.97;;;29.70;51.90;;;;;;5346390;26;20230;-72
2024/04/13 08:12:14;;;;;;;3.57;2.70;;;29.70;52.00;;;;;;5346797;26;20222;-71
2024/04/13 08:14:40;;;;;;;6.40;3.47;;;30.10;52.50;;;;;;5346711;26;20223;-72
2024/04/13 08:17:07;;;;;;;2.87;2.67;;;30.50;51.70;;;;;;5346662;26;20525;-72
2024/04/13 08:19:32;;;;;;;2.63;2.43;;;30.80;50.80;;;;;;5346768;26;20238;-72
2024/04/13 08:21:58;;;;;;;5.17;4.10;;;30.90;49.60;;;;;;5346932;26;20517;-71
2024/04/13 08:24:23;;;;;;;5.03;4.40;;;30.50;49.40;;;;;;5346442;26;20219;-70
2024/04/13 08:26:50;;;;;;;3.97;3.57;;;30.10;49.70;;;;;;5360293;26;20238;-71
2024/04/13 08:29:16;;;;;;;3.93;3.17;;;30.00;49.30;;;;;;5373513;26;20264;-71
2024/04/13 08:31:42;;;;;;;4.43;4.10;;;30.30;49.90;;;;;;5377792;26;20488;-72
2024/04/13 08:34:07;;;;;;;3.50;3.20;;;30.50;48.60;;;;;;5361163;26;20557;-71
2024/04/13 08:36:33;;;;;;;3.80;2.80;;;30.80;48.80;;;;;;5375538;26;20268;-71
2024/04/13 08:38:58;;;;;;;2.90;2.67;;;31.00;49.00;;;;;;5381537;26;20264;-71
2024/04/13 08:41:29;;;;;;;4.70;3.80;;;31.90;49.40;;;;;;5380847;26;20267;-71
2024/04/13 08:43:54;;;;;;;3.70;3.17;;;32.60;47.50;;;;;;5381678;26;20206;-72
2024/04/13 08:46:21;;;;;;;3.40;3.10;;;33.30;46.30;;;;;;5380907;26;20444;-71
2024/04/13 08:48:49;;;;;;;2.90;2.70;;;33.20;44.50;;;;;;5380714;26;20615;-72
2024/04/13 08:51:15;;;;;;;6.73;3.60;;;33.90;44.10;;;;;;5381025;26;20506;-72
2024/04/13 08:53:43;;;;;;;3.73;3.00;;;34.20;42.00;;;;;;5381468;26;20491;-72
2024/04/13 08:56:11;;;;;;;2.63;2.23;;;34.50;41.50;;;;;;5362937;26;20519;-72
2024/04/13 08:58:38;;;;;;;5.30;3.60;;;34.50;41.90;;;;;;5375598;26;20938;-71
2024/04/13 09:01:10;;;;;;;6.57;3.00;;;36.00;41.60;;;;;;5365914;26;20455;-72
2024/04/13 09:03:36;;;;;;;3.43;2.77;;;36.50;38.30;;;;;;5378093;26;20468;-72
2024/04/13 09:06:02;;;;;;;6.90;3.07;;;36.60;37.50;;;;;;5381199;26;21105;-71
2024/04/13 09:08:31;;;;;;;3.50;3.00;;;37.30;37.50;;;;;;5381153;26;20218;-72
2024/04/13 09:10:59;;;;;;;2.60;2.40;;;37.80;35.60;;;;;;5380865;26;21050;-73
2024/04/13 09:13:25;;;;;;;6.57;2.90;;;38.00;34.70;;;;;;5380909;26;20444;-70
2024/04/13 09:15:50;;;;;;;4.37;2.37;;;38.70;33.90;;;;;;5359869;26;20582;-71
2024/04/13 09:18:16;;;;;;;3.43;3.13;;;39.30;33.10;;;;;;5378436;26;20736;-71
2024/04/13 09:20:42;;;;;;;3.00;2.80;;;39.50;31.60;;;;;;5380183;26;20225;-71
2024/04/13 09:23:08;;;;;;;4.10;3.10;;;39.20;31.90;;;;;;5355818;26;20555;-71
2024/04/13 09:25:33;;;;;;;3.30;2.60;;;39.40;32.90;;;;;;5371588;26;20471;-71
2024/04/13 09:28:04;;;;;;;3.23;2.87;;;39.60;32.00;;;;;;5380607;26;20218;-71
2024/04/13 09:30:30;;;;;;;2.67;2.47;;;39.40;31.20;;;;;;5379666;26;20296;-72
2024/04/13 09:33:03;;;;;;;6.50;2.83;;;39.90;31.90;;;;;;5379753;26;20492;-70
2024/04/13 09:35:29;;;;;;;2.67;2.37;;;40.10;30.80;;;;;;5353312;26;20453;-71
2024/04/13 09:37:58;;;;;;;3.13;2.60;;;39.00;30.00;;;;;;5369825;26;20455;-71
2024/04/13 09:40:24;;;;;;;3.23;2.93;;;38.90;30.70;;;;;;5378201;26;20540;-72
2024/04/13 09:42:50;;;;;;;3.47;3.17;;;39.40;30.80;;;;;;5366483;26;20484;-73
2024/04/13 09:45:16;;;;;;;2.87;2.63;;;38.70;30.30;;;;;;5380079;26;20520;-71
2024/04/13 09:47:41;;;;;;;2.73;2.50;;;38.40;30.50;;;;;;5375464;26;20262;-72
2024/04/13 09:50:07;;;;;;;3.20;2.60;;;38.40;30.90;;;;;;5372109;26;20276;-73
2024/04/13 09:52:33;;;;;;;2.60;2.27;;;38.20;30.80;;;;;;5380350;26;20218;-72
2024/04/13 09:55:00;;;;;;;2.60;2.40;;;38.10;31.70;;;;;;5380392;26;20222;-73
2024/04/13 09:57:26;;;;;;;5.77;2.53;;;38.30;32.60;;;;;;5380859;26;20579;-73
2024/04/13 09:59:56;;;;;;;4.80;3.00;;;38.50;30.70;;;;;;5380005;26;20471;-73
2024/04/13 10:02:22;;;;;;;7.03;3.07;;;38.20;30.60;;;;;;5380704;26;20451;-73
2024/04/13 10:04:48;;;;;;;3.17;2.60;;;36.90;31.50;;;;;;5379637;26;20511;-72
2024/04/13 10:07:14;;;;;;;2.80;2.60;;;36.90;32.50;;;;;;5380270;26;20226;-72
2024/04/13 10:09:49;;;;;;;2.40;2.03;;;37.20;32.40;;;;;;5379115;26;20472;-72
2024/04/13 10:12:22;;;;;;;3.20;2.60;;;38.10;32.10;;;;;;5380047;26;20515;-72
2024/04/13 10:14:51;;;;;;;3.53;2.27;;;38.10;31.40;;;;;;5380070;26;20472;-72
2024/04/13 10:17:18;;;;;;;2.53;2.33;;;38.00;31.10;;;;;;5380158;26;20783;-73
2024/04/13 10:19:45;;;;;;;3.00;2.70;;;37.70;30.80;;;;;;5373365;26;20513;-72
2024/04/13 10:22:11;;;;;;;2.60;2.17;;;37.20;31.40;;;;;;5362469;26;20459;-71
2024/04/13 10:24:43;;;;;;;3.23;2.27;;;36.60;32.20;;;;;;5379360;26;20851;-72
2024/04/13 10:27:10;;;;;;;3.43;2.37;;;36.90;32.30;;;;;;5380231;26;20530;-72
2024/04/13 10:29:40;;;;;;;2.73;2.33;;;37.30;31.80;;;;;;5379462;26;20548;-71
2024/04/13 10:32:22;;;;;;;2.77;2.43;;;37.80;31.10;;;;;;5380072;26;20436;-71
2024/04/13 10:34:48;;;;;;;2.23;1.90;;;38.20;31.20;;;;;;5372307;26;21030;-72
2024/04/13 10:37:30;;;;;;;2.70;2.03;;;39.00;30.50;;;;;;5361380;26;20449;-72
2024/04/13 10:40:01;;;;;;;2.33;2.13;;;38.60;29.70;;;;;;5365477;26;20476;-72
2024/04/13 10:42:40;;;;;;;3.07;2.77;;;39.10;30.00;;;;;;5373309;26;20998;-72
2024/04/13 10:45:10;;;;;;;2.83;2.23;;;39.40;29.30;;;;;;5343211;26;20456;-72
2024/04/13 10:47:40;;;;;;;4.17;2.63;;;39.40;28.50;;;;;;5345011;26;21332;-71
2024/04/13 10:50:13;;;;;;;2.30;2.10;;;40.00;29.10;;;;;;5344322;26;20572;-72
2024/04/13 10:52:39;;;;;;;3.40;3.00;;;41.20;29.40;;;;;;5344617;26;20575;-72
2024/04/13 10:55:05;;;;;;;3.17;2.47;;;41.80;28.20;;;;;;5369271;26;20461;-72
2024/04/13 10:57:31;;;;;;;2.40;2.20;;;41.50;27.20;;;;;;5383000;26;20285;-72
2024/04/13 10:59:56;;;;;;;2.97;2.70;;;42.00;28.30;;;;;;5382867;26;20491;-72
2024/04/13 11:02:22;;;;;;;2.73;2.53;;;41.90;27.50;;;;;;5380841;26;20456;-72
2024/04/13 11:04:49;;;;;;;2.90;2.00;;;41.90;27.50;;;;;;5382504;26;20218;-72
2024/04/13 11:07:15;;;;;;;2.20;2.00;;;41.70;27.10;;;;;;5382808;26;20265;-71
2024/04/13 11:09:41;;;;;;;6.37;3.13;;;41.20;27.80;;;;;;5379231;26;20453;-71
2024/04/13 11:12:08;;;;;;;3.40;2.47;;;41.30;27.60;;;;;;5382058;26;20515;-70
2024/04/13 11:14:34;;;;;;;3.23;2.57;;;40.90;27.50;;;;;;5381796;26;20923;-70
2024/04/13 11:16:59;;;;;;;3.00;2.57;;;40.90;27.70;;;;;;5381292;26;20463;-71
2024/04/13 11:19:25;;;;;;;2.80;2.23;;;40.70;27.80;;;;;;5381295;26;20322;-71
2024/04/13 11:21:52;;;;;;;2.00;1.83;;;40.50;28.10;;;;;;5381948;26;20280;-70
2024/04/13 11:24:18;;;;;;;2.80;2.60;;;40.30;28.00;;;;;;5381948;26;20260;-71
2024/04/13 11:26:46;;;;;;;2.20;2.00;;;40.20;28.00;;;;;;5381808;26;20800;-70
2024/04/13 11:29:11;;;;;;;4.17;3.10;;;40.10;28.10;;;;;;5382009;26;20274;-71
2024/04/13 11:31:37;;;;;;;2.60;2.10;;;40.10;28.10;;;;;;5381749;26;20780;-71
2024/04/13 11:34:03;;;;;;;3.03;1.90;;;40.50;27.70;;;;;;5375403;26;20334;-71
2024/04/13 11:36:28;;;;;;;3.87;2.57;;;40.50;27.50;;;;;;5361840;26;20265;-70
2024/04/13 11:38:54;;;;;;;3.93;2.50;;;39.60;27.90;;;;;;5364869;26;20225;-71
2024/04/13 11:41:21;;;;;;;3.93;2.50;;;39.70;28.90;;;;;;5382074;26;20259;-69
2024/04/13 11:43:53;;;;;;;2.60;2.07;;;39.60;28.50;;;;;;5381916;26;20297;-71
2024/04/13 11:46:19;;;;;;;3.13;2.37;;;39.60;28.80;;;;;;5382784;26;20526;-71
2024/04/13 11:48:45;;;;;;;3.73;2.37;;;39.60;29.00;;;;;;5380207;26;20468;-72
2024/04/13 11:51:11;;;;;;;2.27;2.07;;;40.30;29.20;;;;;;5381895;26;20330;-73
2024/04/13 11:53:37;;;;;;;2.10;1.90;;;40.40;28.20;;;;;;5382262;26;20614;-72
2024/04/13 11:56:07;;;;;;;2.53;2.33;;;39.70;26.90;;;;;;5382292;26;20221;-72
2024/04/13 11:58:33;;;;;;;2.47;2.10;;;39.90;27.70;;;;;;5382495;26;20958;-72
2024/04/13 12:00:58;;;;;;;2.60;2.07;;;40.10;27.70;;;;;;5381567;26;20463;-71
2024/04/13 12:03:24;;;;;;;2.23;1.87;;;39.90;27.40;;;;;;5382268;26;20806;-71
2024/04/13 12:05:50;;;;;;;2.30;2.10;;;40.10;27.40;;;;;;5380732;26;20221;-72
2024/04/13 12:08:16;;;;;;;2.50;2.03;;;39.90;27.50;;;;;;5381960;26;20222;-71
2024/04/13 12:10:41;;;;;;;2.20;2.00;;;40.50;28.00;;;;;;5381585;26;20459;-72
2024/04/13 12:13:07;;;;;;;2.37;2.10;;;41.40;27.20;;;;;;5382007;26;20598;-71
2024/04/13 12:15:32;;;;;;;3.77;2.43;;;41.60;26.60;;;;;;5382000;26;20591;-72
2024/04/13 12:17:58;;;;;;;2.60;1.93;;;40.30;26.10;;;;;;5381996;26;20217;-71
2024/04/13 12:20:24;;;;;;;1.90;1.80;;;40.20;26.70;;;;;;5381430;26;20222;-72
2024/04/13 12:22:51;;;;;;;2.27;2.17;;;40.90;27.20;;;;;;5381643;26;20277;-71
2024/04/13 12:25:16;;;;;;;3.90;2.20;;;40.10;26.30;;;;;;5381760;26;20512;-72
2024/04/13 12:27:42;;;;;;;2.30;2.10;;;40.00;27.10;;;;;;5381718;26;20549;-72
2024/04/13 12:30:08;;;;;;;3.77;2.90;;;40.40;27.10;;;;;;5381209;26;20818;-72
2024/04/13 12:32:33;;;;;;;1.73;1.63;;;40.90;26.40;;;;;;5381694;26;20500;-72
2024/04/13 12:34:59;;;;;;;2.20;2.10;;;40.70;26.30;;;;;;5381592;26;20210;-72
2024/04/13 12:37:25;;;;;;;2.67;2.47;;;40.50;26.00;;;;;;5381577;26;20617;-72
2024/04/13 12:39:50;;;;;;;2.50;1.90;;;41.00;26.30;;;;;;5381048;26;20268;-72
2024/04/13 12:42:18;;;;;;;1.70;1.60;;;40.40;26.10;;;;;;5381582;26;20323;-72